sensor_id;sensor_type;location;lat;lon;timestamp;pressure;altitude;pressure_sealevel;temperature;humidity
80726;BME280;70113;59.928;10.878;2023-05-16T00:00:36;98693.97;;;12.25;83.57
80726;BME280;70113;59.928;10.878;2023-05-16T00:03:21;98675.81;;;12.18;83.43
80726;BME280;70113;59.928;10.878;2023-05-16T00:05:47;98674.88;;;12.00;83.78
80726;BME280;70113;59.928;10.878;2023-05-16T00:08:13;98678.97;;;12.26;82.41
80726;BME280;70113;59.928;10.878;2023-05-16T00:10:38;98689.22;;;12.15;83.09
80726;BME280;70113;59.928;10.878;2023-05-16T00:13:04;98681.09;;;12.18;83.26
80726;BME280;70113;59.928;10.878;2023-05-16T00:15:31;98648.09;;;12.06;83.20
80726;BME280;70113;59.928;10.878;2023-05-16T00:17:57;98664.41;;;12.16;83.53
80726;BME280;70113;59.928;10.878;2023-05-16T00:20:27;98668.81;;;12.17;83.79
80726;BME280;70113;59.928;10.878;2023-05-16T00:22:53;98653.91;;;11.95;84.04
80726;BME280;70113;59.928;10.878;2023-05-16T00:25:20;98660.25;;;12.10;83.71
80726;BME280;70113;59.928;10.878;2023-05-16T00:27:45;98661.72;;;12.17;83.24
80726;BME280;70113;59.928;10.878;2023-05-16T00:30:11;98666.78;;;12.22;83.35
80726;BME280;70113;59.928;10.878;2023-05-16T00:32:37;98661.72;;;12.17;83.50
80726;BME280;70113;59.928;10.878;2023-05-16T00:35:03;98666.78;;;12.22;83.29
80726;BME280;70113;59.928;10.878;2023-05-16T00:37:29;98655.56;;;12.17;83.60
80726;BME280;70113;59.928;10.878;2023-05-16T00:39:54;98632.06;;;12.09;82.90
80726;BME280;70113;59.928;10.878;2023-05-16T00:42:20;98653.75;;;12.17;82.97
80726;BME280;70113;59.928;10.878;2023-05-16T00:44:47;98659.81;;;12.19;83.83
80726;BME280;70113;59.928;10.878;2023-05-16T00:47:13;98651.66;;;12.24;83.37
80726;BME280;70113;59.928;10.878;2023-05-16T00:49:39;98647.22;;;12.24;82.86
80726;BME280;70113;59.928;10.878;2023-05-16T00:52:05;98635.72;;;12.06;83.32
80726;BME280;70113;59.928;10.878;2023-05-16T00:54:31;98647.09;;;12.08;83.69
80726;BME280;70113;59.928;10.878;2023-05-16T00:56:56;98629.06;;;11.98;83.90
80726;BME280;70113;59.928;10.878;2023-05-16T00:59:23;98653.13;;;12.12;83.85
80726;BME280;70113;59.928;10.878;2023-05-16T01:01:49;98641.88;;;12.07;84.18
80726;BME280;70113;59.928;10.878;2023-05-16T01:04:16;98643.81;;;12.03;83.99
80726;BME280;70113;59.928;10.878;2023-05-16T01:06:43;98641.25;;;12.02;83.99
80726;BME280;70113;59.928;10.878;2023-05-16T01:09:09;98639.88;;;12.12;83.37
80726;BME280;70113;59.928;10.878;2023-05-16T01:12:08;98636.13;;;12.16;83.05
80726;BME280;70113;59.928;10.878;2023-05-16T01:14:55;98632.13;;;12.07;83.30
80726;BME280;70113;59.928;10.878;2023-05-16T01:20:10;98620.25;;;11.97;84.26
80726;BME280;70113;59.928;10.878;2023-05-16T01:27:58;98625.13;;;11.88;83.80
80726;BME280;70113;59.928;10.878;2023-05-16T01:30:24;98623.13;;;12.12;83.50
80726;BME280;70113;59.928;10.878;2023-05-16T01:32:50;98616.03;;;12.12;82.76
80726;BME280;70113;59.928;10.878;2023-05-16T01:35:16;98618.53;;;12.15;82.62
80726;BME280;70113;59.928;10.878;2023-05-16T01:37:49;98616.03;;;12.12;82.97
80726;BME280;70113;59.928;10.878;2023-05-16T01:42:59;98595.41;;;12.00;81.94
80726;BME280;70113;59.928;10.878;2023-05-16T01:45:31;98605.47;;;11.93;82.51
80726;BME280;70113;59.928;10.878;2023-05-16T01:48:11;98606.66;;;12.05;82.48
80726;BME280;70113;59.928;10.878;2023-05-16T01:50:45;98595.41;;;12.00;82.29
80726;BME280;70113;59.928;10.878;2023-05-16T01:53:16;98609.50;;;12.00;83.26
80726;BME280;70113;59.928;10.878;2023-05-16T01:55:47;98614.09;;;11.97;82.97
80726;BME280;70113;59.928;10.878;2023-05-16T01:58:14;98608.50;;;12.03;84.01
80726;BME280;70113;59.928;10.878;2023-05-16T02:00:41;98604.50;;;11.94;83.43
80726;BME280;70113;59.928;10.878;2023-05-16T02:03:07;98609.97;;;11.91;83.78
80726;BME280;70113;59.928;10.878;2023-05-16T02:05:33;98608.31;;;11.89;83.86
80726;BME280;70113;59.928;10.878;2023-05-16T02:07:59;98601.22;;;11.89;83.60
80726;BME280;70113;59.928;10.878;2023-05-16T02:10:26;98603.94;;;11.88;83.43
80726;BME280;70113;59.928;10.878;2023-05-16T02:12:52;98601.16;;;11.91;83.26
80726;BME280;70113;59.928;10.878;2023-05-16T02:15:18;98598.66;;;11.88;83.46
80726;BME280;70113;59.928;10.878;2023-05-16T02:17:44;98600.09;;;11.74;84.10
80726;BME280;70113;59.928;10.878;2023-05-16T02:20:10;98591.69;;;11.66;84.65
80726;BME280;70113;59.928;10.878;2023-05-16T02:22:36;98603.03;;;11.68;84.33
80726;BME280;70113;59.928;10.878;2023-05-16T02:25:04;98605.63;;;11.70;84.97
80726;BME280;70113;59.928;10.878;2023-05-16T02:27:31;98605.63;;;11.70;84.32
80726;BME280;70113;59.928;10.878;2023-05-16T02:29:57;98600.19;;;11.73;84.36
80726;BME280;70113;59.928;10.878;2023-05-16T02:32:23;98610.50;;;11.79;84.17
80726;BME280;70113;59.928;10.878;2023-05-16T02:34:48;98605.53;;;11.71;84.25
80726;BME280;70113;59.928;10.878;2023-05-16T02:37:14;98593.75;;;11.78;83.22
80726;BME280;70113;59.928;10.878;2023-05-16T02:39:40;98600.19;;;11.73;84.13
80726;BME280;70113;59.928;10.878;2023-05-16T02:42:06;98598.47;;;11.53;84.68
80726;BME280;70113;59.928;10.878;2023-05-16T02:44:32;98586.03;;;11.55;84.46
80726;BME280;70113;59.928;10.878;2023-05-16T02:46:58;98587.88;;;11.53;84.86
80726;BME280;70113;59.928;10.878;2023-05-16T02:49:24;98596.75;;;11.71;83.82
80726;BME280;70113;59.928;10.878;2023-05-16T02:51:50;98594.47;;;11.63;83.74
80726;BME280;70113;59.928;10.878;2023-05-16T02:54:16;98593.16;;;11.53;84.96
80726;BME280;70113;59.928;10.878;2023-05-16T02:56:41;98595.66;;;11.37;85.97
80726;BME280;70113;59.928;10.878;2023-05-16T02:59:07;98574.06;;;11.46;84.79
80726;BME280;70113;59.928;10.878;2023-05-16T03:01:33;98577.22;;;11.54;84.47
80726;BME280;70113;59.928;10.878;2023-05-16T03:03:59;98587.72;;;11.37;85.95
80726;BME280;70113;59.928;10.878;2023-05-16T03:06:24;98587.19;;;11.29;86.36
80726;BME280;70113;59.928;10.878;2023-05-16T03:08:50;98582.00;;;11.46;85.18
80726;BME280;70113;59.928;10.878;2023-05-16T03:11:17;98567.06;;;11.45;85.09
80726;BME280;70113;59.928;10.878;2023-05-16T03:13:47;98578.66;;;11.43;85.07
80726;BME280;70113;59.928;10.878;2023-05-16T03:16:12;98572.94;;;11.52;84.80
80726;BME280;70113;59.928;10.878;2023-05-16T03:18:38;98560.03;;;11.44;84.35
80726;BME280;70113;59.928;10.878;2023-05-16T03:21:04;98574.78;;;11.50;84.79
80726;BME280;70113;59.928;10.878;2023-05-16T03:23:30;98566.41;;;11.40;85.07
80726;BME280;70113;59.928;10.878;2023-05-16T03:25:55;98550.97;;;11.31;85.18
80726;BME280;70113;59.928;10.878;2023-05-16T03:28:21;98553.69;;;11.48;85.12
80726;BME280;70113;59.928;10.878;2023-05-16T03:30:46;98563.75;;;11.40;85.37
80726;BME280;70113;59.928;10.878;2023-05-16T03:33:12;98559.97;;;11.46;84.79
80726;BME280;70113;59.928;10.878;2023-05-16T03:35:38;98541.66;;;11.41;84.12
80726;BME280;70113;59.928;10.878;2023-05-16T03:38:05;98533.50;;;11.27;85.09
80726;BME280;70113;59.928;10.878;2023-05-16T03:40:30;98554.88;;;11.41;85.49
80726;BME280;70113;59.928;10.878;2023-05-16T03:42:56;98558.69;;;11.54;84.12
80726;BME280;70113;59.928;10.878;2023-05-16T03:45:22;98561.69;;;11.47;84.09
80726;BME280;70113;59.928;10.878;2023-05-16T03:47:48;98547.59;;;11.46;84.52
80726;BME280;70113;59.928;10.878;2023-05-16T03:50:14;98550.41;;;11.43;84.36
80726;BME280;70113;59.928;10.878;2023-05-16T03:52:40;98564.53;;;11.42;84.73
80726;BME280;70113;59.928;10.878;2023-05-16T03:55:06;98558.66;;;11.35;85.03
80726;BME280;70113;59.928;10.878;2023-05-16T03:57:33;98555.75;;;11.41;84.60
80726;BME280;70113;59.928;10.878;2023-05-16T03:59:59;98551.06;;;11.48;84.89
80726;BME280;70113;59.928;10.878;2023-05-16T04:02:25;98549.97;;;11.52;83.68
80726;BME280;70113;59.928;10.878;2023-05-16T04:04:50;98537.66;;;11.32;84.37
80726;BME280;70113;59.928;10.878;2023-05-16T04:07:16;98560.75;;;11.48;84.25
80726;BME280;70113;59.928;10.878;2023-05-16T04:09:42;98551.25;;;11.44;84.83
80726;BME280;70113;59.928;10.878;2023-05-16T04:12:07;98546.09;;;11.40;84.64
80726;BME280;70113;59.928;10.878;2023-05-16T04:14:34;98547.53;;;11.48;85.11
80726;BME280;70113;59.928;10.878;2023-05-16T04:17:00;98551.75;;;11.52;84.52
80726;BME280;70113;59.928;10.878;2023-05-16T04:19:26;98547.47;;;11.49;84.46
80726;BME280;70113;59.928;10.878;2023-05-16T04:21:51;98538.53;;;11.52;84.16
80726;BME280;70113;59.928;10.878;2023-05-16T04:24:17;98540.38;;;11.50;84.42
80726;BME280;70113;59.928;10.878;2023-05-16T04:26:43;98535.72;;;11.36;84.57
80726;BME280;70113;59.928;10.878;2023-05-16T04:29:09;98544.59;;;11.54;84.19
80726;BME280;70113;59.928;10.878;2023-05-16T04:31:36;98540.19;;;11.54;84.49
80726;BME280;70113;59.928;10.878;2023-05-16T04:34:02;98530.88;;;11.46;84.27
80726;BME280;70113;59.928;10.878;2023-05-16T04:36:28;98529.50;;;11.37;84.35
80726;BME280;70113;59.928;10.878;2023-05-16T04:38:55;98532.38;;;11.51;84.02
80726;BME280;70113;59.928;10.878;2023-05-16T04:41:21;98537.44;;;11.56;83.66
80726;BME280;70113;59.928;10.878;2023-05-16T04:43:48;98530.34;;;11.56;83.49
80726;BME280;70113;59.928;10.878;2023-05-16T04:46:14;98532.09;;;11.57;83.66
80726;BME280;70113;59.928;10.878;2023-05-16T04:48:42;98542.59;;;11.59;83.89
80726;BME280;70113;59.928;10.878;2023-05-16T04:51:08;98520.84;;;11.52;84.85
80726;BME280;70113;59.928;10.878;2023-05-16T04:53:33;98524.91;;;11.59;85.28
80726;BME280;70113;59.928;10.878;2023-05-16T04:55:59;98534.94;;;11.53;85.76
80726;BME280;70113;59.928;10.878;2023-05-16T04:58:25;98532.38;;;11.51;85.38
80726;BME280;70113;59.928;10.878;2023-05-16T05:00:51;98529.66;;;11.53;86.46
80726;BME280;70113;59.928;10.878;2023-05-16T05:03:17;98525.28;;;11.52;87.08
80726;BME280;70113;59.928;10.878;2023-05-16T05:05:43;98509.47;;;11.31;87.72
80726;BME280;70113;59.928;10.878;2023-05-16T05:08:08;98529.22;;;11.43;87.56
80726;BME280;70113;59.928;10.878;2023-05-16T05:10:35;98515.75;;;11.48;86.96
80726;BME280;70113;59.928;10.878;2023-05-16T05:13:00;98528.34;;;11.61;86.38
80726;BME280;70113;59.928;10.878;2023-05-16T05:15:26;98521.28;;;11.62;87.47
80726;BME280;70113;59.928;10.878;2023-05-16T05:17:52;98522.06;;;11.64;86.91
80726;BME280;70113;59.928;10.878;2023-05-16T05:20:18;98529.47;;;11.75;86.62
80726;BME280;70113;59.928;10.878;2023-05-16T05:22:44;98521.91;;;11.67;86.56
80726;BME280;70113;59.928;10.878;2023-05-16T05:25:09;98526.63;;;11.79;85.87
80726;BME280;70113;59.928;10.878;2023-05-16T05:27:35;98517.75;;;11.80;85.60
80726;BME280;70113;59.928;10.878;2023-05-16T05:30:02;98524.69;;;11.83;85.46
80726;BME280;70113;59.928;10.878;2023-05-16T05:32:28;98509.47;;;11.69;85.87
80726;BME280;70113;59.928;10.878;2023-05-16T05:34:54;98523.97;;;11.79;85.46
80726;BME280;70113;59.928;10.878;2023-05-16T05:37:20;98522.03;;;11.83;84.46
80726;BME280;70113;59.928;10.878;2023-05-16T05:39:46;98526.16;;;11.90;84.12
80726;BME280;70113;59.928;10.878;2023-05-16T05:42:12;98523.50;;;11.90;84.28
80726;BME280;70113;59.928;10.878;2023-05-16T05:44:37;98528.34;;;11.99;82.67
80726;BME280;70113;59.928;10.878;2023-05-16T05:47:04;98522.19;;;11.99;82.45
80726;BME280;70113;59.928;10.878;2023-05-16T05:49:31;98536.06;;;12.04;83.25
80726;BME280;70113;59.928;10.878;2023-05-16T05:51:57;98527.41;;;12.00;84.04
80726;BME280;70113;59.928;10.878;2023-05-16T05:54:23;98512.66;;;11.95;83.99
80726;BME280;70113;59.928;10.878;2023-05-16T05:56:49;98528.81;;;12.07;83.68
80726;BME280;70113;59.928;10.878;2023-05-16T05:59:15;98502.03;;;11.96;83.37
80726;BME280;70113;59.928;10.878;2023-05-16T06:01:40;98524.16;;;12.13;82.89
80726;BME280;70113;59.928;10.878;2023-05-16T06:04:07;98518.16;;;12.09;83.09
80726;BME280;70113;59.928;10.878;2023-05-16T06:06:32;98523.50;;;12.07;84.40
80726;BME280;70113;59.928;10.878;2023-05-16T06:08:58;98524.00;;;12.16;84.27
80726;BME280;70113;59.928;10.878;2023-05-16T06:11:24;98507.56;;;12.09;83.57
80726;BME280;70113;59.928;10.878;2023-05-16T06:13:50;98509.22;;;12.12;84.42
80726;BME280;70113;59.928;10.878;2023-05-16T06:16:16;98516.00;;;12.17;84.53
80726;BME280;70113;59.928;10.878;2023-05-16T06:18:43;98515.75;;;12.22;84.80
80726;BME280;70113;59.928;10.878;2023-05-16T06:21:09;98518.41;;;12.22;84.31
80726;BME280;70113;59.928;10.878;2023-05-16T06:23:35;98515.53;;;12.26;83.44
80726;BME280;70113;59.928;10.878;2023-05-16T06:26:02;98500.09;;;12.17;83.02
80726;BME280;70113;59.928;10.878;2023-05-16T06:28:28;98496.50;;;12.18;83.00
80726;BME280;70113;59.928;10.878;2023-05-16T06:30:54;98503.28;;;12.24;82.59
80726;BME280;70113;59.928;10.878;2023-05-16T06:33:20;98498.69;;;12.27;82.41
80726;BME280;70113;59.928;10.878;2023-05-16T06:35:46;98514.22;;;12.35;82.52
80726;BME280;70113;59.928;10.878;2023-05-16T06:38:14;98496.19;;;12.24;82.55
80726;BME280;70113;59.928;10.878;2023-05-16T06:40:39;98500.44;;;12.28;82.20
80726;BME280;70113;59.928;10.878;2023-05-16T06:43:05;98494.09;;;12.31;83.17
80726;BME280;70113;59.928;10.878;2023-05-16T06:45:31;98507.28;;;12.32;82.21
80726;BME280;70113;59.928;10.878;2023-05-16T06:47:57;98492.75;;;12.22;82.19
80726;BME280;70113;59.928;10.878;2023-05-16T06:50:23;98478.66;;;12.22;82.41
80726;BME280;70113;59.928;10.878;2023-05-16T06:52:48;98511.47;;;12.37;82.55
80726;BME280;70113;59.928;10.878;2023-05-16T06:55:14;98500.41;;;12.46;81.70
80726;BME280;70113;59.928;10.878;2023-05-16T06:57:40;98494.81;;;12.35;82.01
80726;BME280;70113;59.928;10.878;2023-05-16T07:00:06;98508.59;;;12.41;82.79
80726;BME280;70113;59.928;10.878;2023-05-16T07:02:32;98491.13;;;12.37;83.12
80726;BME280;70113;59.928;10.878;2023-05-16T07:04:58;98492.00;;;12.38;82.93
80726;BME280;70113;59.928;10.878;2023-05-16T07:39:00;98498.78;;;12.43;84.34
80726;BME280;70113;59.928;10.878;2023-05-16T07:41:27;98506.47;;;12.30;85.29
80726;BME280;70113;59.928;10.878;2023-05-16T07:43:53;98493.84;;;12.18;85.49
80726;BME280;70113;59.928;10.878;2023-05-16T07:46:18;98502.66;;;12.19;85.81
80726;BME280;70113;59.928;10.878;2023-05-16T07:48:44;98506.63;;;12.27;85.35
80726;BME280;70113;59.928;10.878;2023-05-16T07:51:10;98504.09;;;12.26;85.59
80726;BME280;70113;59.928;10.878;2023-05-16T07:53:35;98505.94;;;12.24;85.87
80726;BME280;70113;59.928;10.878;2023-05-16T07:56:01;98489.66;;;12.14;85.85
80726;BME280;70113;59.928;10.878;2023-05-16T07:58:27;98500.78;;;12.21;86.24
80726;BME280;70113;59.928;10.878;2023-05-16T08:00:54;98500.69;;;12.22;86.35
80726;BME280;70113;59.928;10.878;2023-05-16T08:03:19;98501.34;;;12.27;86.21
80726;BME280;70113;59.928;10.878;2023-05-16T08:05:45;98502.03;;;12.31;86.44
80726;BME280;70113;59.928;10.878;2023-05-16T08:08:13;98501.81;;;12.18;88.39
80726;BME280;70113;59.928;10.878;2023-05-16T08:10:39;98500.53;;;12.25;89.09
80726;BME280;70113;59.928;10.878;2023-05-16T08:13:04;98472.28;;;12.08;90.19
80726;BME280;70113;59.928;10.878;2023-05-16T08:15:30;98503.59;;;12.18;90.46
80726;BME280;70113;59.928;10.878;2023-05-16T08:17:57;98506.25;;;12.18;91.69
80726;BME280;70113;59.928;10.878;2023-05-16T08:20:24;98496.03;;;12.10;91.84
80726;BME280;70113;59.928;10.878;2023-05-16T08:22:50;98485.72;;;12.04;92.79
80726;BME280;70113;59.928;10.878;2023-05-16T08:25:16;98494.97;;;12.14;93.60
80726;BME280;70113;59.928;10.878;2023-05-16T08:27:44;98498.31;;;12.18;93.55
80726;BME280;70113;59.928;10.878;2023-05-16T08:30:10;98489.66;;;12.14;94.33
80726;BME280;70113;59.928;10.878;2023-05-16T08:32:36;98492.38;;;12.13;93.70
80726;BME280;70113;59.928;10.878;2023-05-16T08:35:02;98503.75;;;12.15;94.84
80726;BME280;70113;59.928;10.878;2023-05-16T08:37:28;98497.59;;;12.14;95.60
80726;BME280;70113;59.928;10.878;2023-05-16T08:39:54;98503.66;;;12.16;94.83
80726;BME280;70113;59.928;10.878;2023-05-16T08:42:19;98494.09;;;12.14;95.27
80726;BME280;70113;59.928;10.878;2023-05-16T08:44:45;98492.16;;;12.17;94.24
80726;BME280;70113;59.928;10.878;2023-05-16T08:47:18;98499.41;;;12.14;95.24
80726;BME280;70113;59.928;10.878;2023-05-16T08:49:50;98496.66;;;12.15;95.02
80726;BME280;70113;59.928;10.878;2023-05-16T08:52:20;98484.34;;;12.14;96.16
80726;BME280;70113;59.928;10.878;2023-05-16T08:54:46;98480.38;;;12.05;96.18
80726;BME280;70113;59.928;10.878;2023-05-16T08:57:15;98487.22;;;12.09;97.07
80726;BME280;70113;59.928;10.878;2023-05-16T08:59:41;98480.06;;;12.12;96.83
80726;BME280;70113;59.928;10.878;2023-05-16T09:02:07;98489.72;;;12.13;98.37
80726;BME280;70113;59.928;10.878;2023-05-16T09:04:34;98497.59;;;12.14;97.66
80726;BME280;70113;59.928;10.878;2023-05-16T09:07:01;98491.28;;;12.17;95.98
80726;BME280;70113;59.928;10.878;2023-05-16T09:09:27;98484.69;;;11.89;97.77
80726;BME280;70113;59.928;10.878;2023-05-16T09:11:52;98492.84;;;11.84;98.17
80726;BME280;70113;59.928;10.878;2023-05-16T09:14:18;98499.53;;;11.93;98.91
80726;BME280;70113;59.928;10.878;2023-05-16T09:16:44;98502.63;;;12.01;96.92
80726;BME280;70113;59.928;10.878;2023-05-16T09:19:32;98487.50;;;11.86;97.49
80726;BME280;70113;59.928;10.878;2023-05-16T09:22:01;98485.06;;;11.81;98.29
80726;BME280;70113;59.928;10.878;2023-05-16T09:24:27;98494.13;;;11.95;99.41
80726;BME280;70113;59.928;10.878;2023-05-16T09:26:53;98492.97;;;12.00;98.87
80726;BME280;70113;59.928;10.878;2023-05-16T09:29:20;98490.13;;;12.05;97.13
80726;BME280;70113;59.928;10.878;2023-05-16T09:31:48;98494.53;;;12.04;98.54
80726;BME280;70113;59.928;10.878;2023-05-16T09:34:14;98484.97;;;12.02;99.63
80726;BME280;70113;59.928;10.878;2023-05-16T09:36:39;98493.16;;;12.15;98.33
80726;BME280;70113;59.928;10.878;2023-05-16T09:39:06;98480.25;;;11.90;99.68
80726;BME280;70113;59.928;10.878;2023-05-16T09:41:35;98490.69;;;11.93;100.00
80726;BME280;70113;59.928;10.878;2023-05-16T09:44:07;98485.97;;;11.80;100.00
80726;BME280;70113;59.928;10.878;2023-05-16T09:46:36;98476.75;;;11.89;100.00
80726;BME280;70113;59.928;10.878;2023-05-16T09:49:02;98462.75;;;11.68;100.00
80726;BME280;70113;59.928;10.878;2023-05-16T09:51:28;98484.91;;;11.84;100.00
80726;BME280;70113;59.928;10.878;2023-05-16T09:53:57;98468.53;;;11.76;100.00
80726;BME280;70113;59.928;10.878;2023-05-16T09:56:23;98473.97;;;11.73;100.00
80726;BME280;70113;59.928;10.878;2023-05-16T09:58:50;98456.59;;;11.68;100.00
80726;BME280;70113;59.928;10.878;2023-05-16T10:01:17;98474.19;;;11.88;100.00
80726;BME280;70113;59.928;10.878;2023-05-16T10:03:43;98469.31;;;11.78;100.00
80726;BME280;70113;59.928;10.878;2023-05-16T10:06:09;98458.56;;;11.81;100.00
80726;BME280;70113;59.928;10.878;2023-05-16T10:08:36;98468.47;;;11.78;100.00
80726;BME280;70113;59.928;10.878;2023-05-16T10:11:03;98455.13;;;11.79;100.00
80726;BME280;70113;59.928;10.878;2023-05-16T10:13:31;98459.06;;;11.90;100.00
80726;BME280;70113;59.928;10.878;2023-05-16T10:15:58;98462.50;;;11.92;100.00
80726;BME280;70113;59.928;10.878;2023-05-16T10:18:31;98458.91;;;11.93;100.00
80726;BME280;70113;59.928;10.878;2023-05-16T10:21:02;98444.22;;;11.87;100.00
80726;BME280;70113;59.928;10.878;2023-05-16T10:23:30;98454.94;;;12.01;100.00
80726;BME280;70113;59.928;10.878;2023-05-16T10:26:00;98450.97;;;11.93;100.00
80726;BME280;70113;59.928;10.878;2023-05-16T10:28:28;98454.38;;;12.14;100.00
80726;BME280;70113;59.928;10.878;2023-05-16T10:30:54;98447.72;;;12.05;100.00
80726;BME280;70113;59.928;10.878;2023-05-16T10:33:20;98454.13;;;12.18;100.00
80726;BME280;70113;59.928;10.878;2023-05-16T10:35:46;98440.38;;;12.10;100.00
80726;BME280;70113;59.928;10.878;2023-05-16T10:38:14;98448.03;;;12.34;100.00
80726;BME280;70113;59.928;10.878;2023-05-16T10:40:41;98441.50;;;12.23;100.00
80726;BME280;70113;59.928;10.878;2023-05-16T10:43:08;98442.19;;;12.27;100.00
80726;BME280;70113;59.928;10.878;2023-05-16T10:45:38;98440.97;;;12.17;100.00
80726;BME280;70113;59.928;10.878;2023-05-16T10:48:05;98439.00;;;12.20;100.00
80726;BME280;70113;59.928;10.878;2023-05-16T10:50:35;98447.44;;;12.28;98.53
80726;BME280;70113;59.928;10.878;2023-05-16T10:53:20;98436.97;;;12.08;99.20
80726;BME280;70113;59.928;10.878;2023-05-16T11:01:16;98432.75;;;12.21;100.00
80726;BME280;70113;59.928;10.878;2023-05-16T11:09:21;98425.06;;;12.17;100.00
80726;BME280;70113;59.928;10.878;2023-05-16T11:14:26;98420.47;;;12.03;99.41
80726;BME280;70113;59.928;10.878;2023-05-16T11:19:46;98418.34;;;12.09;98.41
80726;BME280;70113;59.928;10.878;2023-05-16T11:25:07;98399.66;;;11.95;99.63
80726;BME280;70113;59.928;10.878;2023-05-16T11:27:42;98407.44;;;12.16;99.93
80726;BME280;70113;59.928;10.878;2023-05-16T11:32:35;98385.06;;;12.21;96.23
80726;BME280;70113;59.928;10.878;2023-05-16T11:35:02;98392.63;;;12.29;97.83
80726;BME280;70113;59.928;10.878;2023-05-16T11:37:28;98376.75;;;12.29;99.33
80726;BME280;70113;59.928;10.878;2023-05-16T11:40:01;98386.53;;;12.44;97.61
80726;BME280;70113;59.928;10.878;2023-05-16T11:42:34;98385.13;;;12.37;98.39
80726;BME280;70113;59.928;10.878;2023-05-16T11:45:11;98379.44;;;12.27;95.25
80726;BME280;70113;59.928;10.878;2023-05-16T11:47:39;98381.44;;;12.40;96.60
80726;BME280;70113;59.928;10.878;2023-05-16T11:50:10;98366.63;;;12.53;96.86
80726;BME280;70113;59.928;10.878;2023-05-16T11:52:36;98351.81;;;12.49;95.53
80726;BME280;70113;59.928;10.878;2023-05-16T11:55:06;98360.97;;;12.43;92.65
80726;BME280;70113;59.928;10.878;2023-05-16T11:57:35;98365.84;;;12.51;92.97
80726;BME280;70113;59.928;10.878;2023-05-16T12:00:03;98366.69;;;12.51;88.23
80726;BME280;70113;59.928;10.878;2023-05-16T12:02:30;98351.75;;;12.50;88.14
80726;BME280;70113;59.928;10.878;2023-05-16T12:04:57;98351.22;;;12.44;91.54
80726;BME280;70113;59.928;10.878;2023-05-16T12:07:27;98362.63;;;12.62;92.23
80726;BME280;70113;59.928;10.878;2023-05-16T12:09:53;98344.41;;;12.56;92.72
80726;BME280;70113;59.928;10.878;2023-05-16T12:12:21;98329.69;;;12.50;92.89
80726;BME280;70113;59.928;10.878;2023-05-16T12:14:47;98335.06;;;12.48;91.45
80726;BME280;70113;59.928;10.878;2023-05-16T12:17:13;98341.41;;;12.62;93.73
80726;BME280;70113;59.928;10.878;2023-05-16T12:19:39;98338.22;;;12.55;93.23
80726;BME280;70113;59.928;10.878;2023-05-16T12:22:14;98340.22;;;12.67;94.30
80726;BME280;70113;59.928;10.878;2023-05-16T12:24:40;98342.56;;;12.73;95.13
80726;BME280;70113;59.928;10.878;2023-05-16T12:27:07;98333.72;;;12.73;92.09
80726;BME280;70113;59.928;10.878;2023-05-16T12:29:33;98340.13;;;12.69;93.96
80726;BME280;70113;59.928;10.878;2023-05-16T12:31:59;98332.53;;;12.78;93.95
80726;BME280;70113;59.928;10.878;2023-05-16T12:34:28;98331.50;;;12.81;92.57
80726;BME280;70113;59.928;10.878;2023-05-16T12:36:54;98344.59;;;12.84;94.50
80726;BME280;70113;59.928;10.878;2023-05-16T12:39:21;98334.19;;;12.97;95.38
80726;BME280;70113;59.928;10.878;2023-05-16T12:41:49;98334.75;;;13.02;94.55
80726;BME280;70113;59.928;10.878;2023-05-16T12:44:16;98330.47;;;12.99;93.46
80726;BME280;70113;59.928;10.878;2023-05-16T12:46:50;98333.88;;;13.17;95.15
80726;BME280;70113;59.928;10.878;2023-05-16T12:49:20;98329.03;;;13.10;92.72
80726;BME280;70113;59.928;10.878;2023-05-16T12:51:58;98328.00;;;13.12;94.63
80726;BME280;70113;59.928;10.878;2023-05-16T12:54:30;98302.56;;;13.08;92.63
80726;BME280;70113;59.928;10.878;2023-05-16T12:56:55;98309.63;;;13.25;93.07
80726;BME280;70113;59.928;10.878;2023-05-16T12:59:21;98313.38;;;13.37;93.38
80726;BME280;70113;59.928;10.878;2023-05-16T13:01:47;98297.03;;;13.29;93.36
80726;BME280;70113;59.928;10.878;2023-05-16T13:04:13;98308.31;;;13.32;90.95
80726;BME280;70113;59.928;10.878;2023-05-16T13:06:42;98304.28;;;13.41;89.63
80726;BME280;70113;59.928;10.878;2023-05-16T13:09:08;98294.84;;;13.51;89.11
80726;BME280;70113;59.928;10.878;2023-05-16T13:11:35;98311.38;;;13.71;89.29
80726;BME280;70113;59.928;10.878;2023-05-16T13:14:01;98300.63;;;13.88;90.06
80726;BME280;70113;59.928;10.878;2023-05-16T13:16:26;98286.03;;;14.09;92.84
80726;BME280;70113;59.928;10.878;2023-05-16T13:18:52;98296.72;;;13.94;86.92
80726;BME280;70113;59.928;10.878;2023-05-16T13:21:18;98284.78;;;14.01;88.44
80726;BME280;70113;59.928;10.878;2023-05-16T13:23:44;98286.41;;;14.18;90.05
80726;BME280;70113;59.928;10.878;2023-05-16T13:26:09;98253.94;;;14.12;90.15
80726;BME280;70113;59.928;10.878;2023-05-16T13:28:35;98289.84;;;14.34;86.72
80726;BME280;70113;59.928;10.878;2023-05-16T13:31:01;98279.28;;;14.32;83.23
80726;BME280;70113;59.928;10.878;2023-05-16T13:33:28;98277.59;;;14.17;80.17
80726;BME280;70113;59.928;10.878;2023-05-16T13:35:54;98281.69;;;14.23;81.00
80726;BME280;70113;59.928;10.878;2023-05-16T13:38:21;98271.91;;;14.23;79.46
80726;BME280;70113;59.928;10.878;2023-05-16T13:40:46;98256.78;;;14.24;78.64
80726;BME280;70113;59.928;10.878;2023-05-16T13:43:12;98247.31;;;14.20;81.53
80726;BME280;70113;59.928;10.878;2023-05-16T13:45:39;98261.06;;;14.41;79.54
80726;BME280;70113;59.928;10.878;2023-05-16T13:48:05;98250.72;;;14.36;77.81
80726;BME280;70113;59.928;10.878;2023-05-16T13:50:31;98265.63;;;14.53;78.74
80726;BME280;70113;59.928;10.878;2023-05-16T13:52:57;98264.56;;;14.70;78.32